createdAt,value
2023-05-06T00:01:16.000Z,0
2023-05-06T00:02:32.000Z,0
2023-05-06T00:03:48.000Z,0
2023-05-06T00:05:03.000Z,0
2023-05-06T00:06:19.000Z,0
2023-05-06T00:07:35.000Z,0
2023-05-06T00:08:51.000Z,0
2023-05-06T00:10:08.000Z,0
2023-05-06T00:11:24.000Z,0
2023-05-06T00:12:40.000Z,0
2023-05-06T00:13:56.000Z,0
2023-05-06T00:15:12.000Z,0
2023-05-06T00:16:28.000Z,0
2023-05-06T00:17:44.000Z,0
2023-05-06T00:19:01.000Z,0
2023-05-06T00:20:17.000Z,0
2023-05-06T00:21:32.000Z,0
2023-05-06T00:22:48.000Z,0
2023-05-06T00:24:04.000Z,0
2023-05-06T00:25:20.000Z,0
2023-05-06T00:26:36.000Z,0
2023-05-06T00:27:53.000Z,0
2023-05-06T00:29:09.000Z,0
2023-05-06T00:30:25.000Z,0
2023-05-06T00:31:41.000Z,0
2023-05-06T00:32:57.000Z,0
2023-05-06T00:34:13.000Z,0
2023-05-06T00:35:29.000Z,0
2023-05-06T00:36:46.000Z,0
2023-05-06T00:38:01.000Z,0
2023-05-06T00:39:17.000Z,0
2023-05-06T00:40:33.000Z,0
2023-05-06T00:41:49.000Z,0
2023-05-06T00:43:05.000Z,0
2023-05-06T00:44:22.000Z,0
2023-05-06T00:45:38.000Z,0
2023-05-06T00:46:54.000Z,0
2023-05-06T00:48:10.000Z,0
2023-05-06T00:49:26.000Z,0
2023-05-06T00:50:42.000Z,0
2023-05-06T00:51:58.000Z,0
2023-05-06T00:53:15.000Z,0
2023-05-06T00:54:30.000Z,0
2023-05-06T00:55:46.000Z,0
2023-05-06T00:57:02.000Z,0
2023-05-06T00:58:18.000Z,0
2023-05-06T00:59:34.000Z,0
2023-05-06T01:00:50.000Z,0
2023-05-06T01:02:07.000Z,0
2023-05-06T01:03:23.000Z,0
2023-05-06T01:04:39.000Z,0
2023-05-06T01:05:55.000Z,0
2023-05-06T01:07:11.000Z,0
2023-05-06T01:08:27.000Z,0
2023-05-06T01:09:43.000Z,0
2023-05-06T01:10:59.000Z,0
2023-05-06T01:12:15.000Z,0
2023-05-06T01:13:31.000Z,0
2023-05-06T01:14:47.000Z,0
2023-05-06T01:16:03.000Z,0
2023-05-06T01:17:19.000Z,0
2023-05-06T01:18:35.000Z,0
2023-05-06T01:19:52.000Z,0
2023-05-06T01:21:08.000Z,0
2023-05-06T01:22:24.000Z,0
2023-05-06T01:23:40.000Z,0
2023-05-06T01:24:56.000Z,0
2023-05-06T01:26:12.000Z,0
2023-05-06T01:27:28.000Z,0
2023-05-06T01:28:44.000Z,0
2023-05-06T01:30:00.000Z,0
2023-05-06T01:31:16.000Z,0
2023-05-06T01:32:32.000Z,0
2023-05-06T01:33:48.000Z,0
2023-05-06T01:35:04.000Z,0
2023-05-06T01:36:21.000Z,0
2023-05-06T01:37:37.000Z,0
2023-05-06T01:38:53.000Z,0
2023-05-06T01:40:09.000Z,0
2023-05-06T01:41:25.000Z,0
2023-05-06T01:42:41.000Z,0
2023-05-06T01:45:13.000Z,0
2023-05-06T01:46:29.000Z,0
2023-05-06T01:47:45.000Z,0
2023-05-06T01:49:01.000Z,0
2023-05-06T01:50:17.000Z,0
2023-05-06T01:51:33.000Z,0
2023-05-06T01:52:49.000Z,0
2023-05-06T01:54:06.000Z,0
2023-05-06T01:55:22.000Z,0
2023-05-06T01:56:38.000Z,0
2023-05-06T01:57:54.000Z,0
2023-05-06T01:59:10.000Z,0
2023-05-06T02:00:25.000Z,0
2023-05-06T02:01:41.000Z,0
2023-05-06T02:02:58.000Z,0
2023-05-06T02:04:14.000Z,0
2023-05-06T02:05:30.000Z,0
2023-05-06T02:06:46.000Z,0
2023-05-06T02:08:02.000Z,0
2023-05-06T02:09:18.000Z,0
2023-05-06T02:10:34.000Z,0
2023-05-06T02:11:51.000Z,0
2023-05-06T02:13:07.000Z,0
2023-05-06T02:14:23.000Z,0
2023-05-06T02:15:39.000Z,0
2023-05-06T02:16:54.000Z,0
2023-05-06T02:18:10.000Z,0
2023-05-06T02:19:27.000Z,0
2023-05-06T02:20:43.000Z,0
2023-05-06T02:21:59.000Z,0
2023-05-06T02:23:15.000Z,0
2023-05-06T02:24:31.000Z,0
2023-05-06T02:25:47.000Z,0
2023-05-06T02:27:03.000Z,0
2023-05-06T02:28:20.000Z,0
2023-05-06T02:29:36.000Z,0
2023-05-06T02:30:52.000Z,0
2023-05-06T02:32:08.000Z,0
2023-05-06T02:33:23.000Z,0
2023-05-06T02:34:39.000Z,0
2023-05-06T02:35:55.000Z,0
2023-05-06T02:37:12.000Z,0
2023-05-06T02:38:28.000Z,0
2023-05-06T02:39:44.000Z,0
2023-05-06T02:41:00.000Z,0
2023-05-06T02:42:16.000Z,0
2023-05-06T02:43:32.000Z,0
2023-05-06T02:44:48.000Z,0
2023-05-06T02:46:05.000Z,0
2023-05-06T02:47:21.000Z,0
2023-05-06T02:48:37.000Z,0
2023-05-06T02:49:52.000Z,0
2023-05-06T02:51:08.000Z,0
2023-05-06T02:52:24.000Z,0
2023-05-06T02:53:40.000Z,0
2023-05-06T02:54:57.000Z,0
2023-05-06T02:56:13.000Z,0
2023-05-06T02:57:29.000Z,0
2023-05-06T02:58:45.000Z,0
2023-05-06T03:00:01.000Z,0
2023-05-06T03:01:17.000Z,0
2023-05-06T03:02:33.000Z,0
2023-05-06T03:03:50.000Z,0
2023-05-06T03:05:06.000Z,0
2023-05-06T03:06:21.000Z,0
2023-05-06T03:07:37.000Z,0
2023-05-06T03:08:53.000Z,0
2023-05-06T03:10:09.000Z,0
2023-05-06T03:11:25.000Z,0
2023-05-06T03:12:42.000Z,0
2023-05-06T03:13:57.000Z,0
2023-05-06T03:15:13.000Z,0
2023-05-06T03:16:29.000Z,0
2023-05-06T03:17:45.000Z,0
2023-05-06T03:19:01.000Z,0
2023-05-06T03:20:18.000Z,0
2023-05-06T03:21:34.000Z,4
2023-05-06T03:22:50.000Z,4
2023-05-06T03:24:06.000Z,4
2023-05-06T03:25:22.000Z,4
2023-05-06T03:26:38.000Z,4
2023-05-06T03:27:54.000Z,4
2023-05-06T03:29:11.000Z,4
2023-05-06T03:30:26.000Z,0
2023-05-06T03:31:42.000Z,4
2023-05-06T03:32:58.000Z,0
2023-05-06T03:34:14.000Z,8
2023-05-06T03:35:30.000Z,4
2023-05-06T03:36:46.000Z,8
2023-05-06T03:38:03.000Z,4
2023-05-06T03:39:19.000Z,4
2023-05-06T03:40:35.000Z,8
2023-05-06T03:41:51.000Z,8
2023-05-06T03:43:07.000Z,8
2023-05-06T03:44:23.000Z,8
2023-05-06T03:45:39.000Z,12
2023-05-06T03:46:55.000Z,8
2023-05-06T03:48:11.000Z,12
2023-05-06T03:49:27.000Z,12
2023-05-06T03:50:43.000Z,12
2023-05-06T03:51:59.000Z,16
2023-05-06T03:53:15.000Z,20
2023-05-06T03:54:31.000Z,20
2023-05-06T03:55:48.000Z,20
2023-05-06T03:57:04.000Z,16
2023-05-06T03:58:20.000Z,20
2023-05-06T03:59:36.000Z,20
2023-05-06T04:00:52.000Z,24
2023-05-06T04:02:08.000Z,28
2023-05-06T04:03:24.000Z,20
2023-05-06T04:04:40.000Z,24
2023-05-06T04:05:56.000Z,28
2023-05-06T04:07:12.000Z,28
2023-05-06T04:08:28.000Z,32
2023-05-06T04:09:44.000Z,32
2023-05-06T04:11:00.000Z,40
2023-05-06T04:12:17.000Z,36
2023-05-06T04:13:33.000Z,36
2023-05-06T04:14:49.000Z,44
2023-05-06T04:16:05.000Z,52
2023-05-06T04:17:21.000Z,48
2023-05-06T04:18:37.000Z,56
2023-05-06T04:19:52.000Z,52
2023-05-06T04:21:09.000Z,56
2023-05-06T04:22:25.000Z,56
2023-05-06T04:23:41.000Z,64
2023-05-06T04:24:57.000Z,64
2023-05-06T04:26:13.000Z,60
2023-05-06T04:27:29.000Z,76
2023-05-06T04:28:45.000Z,68
2023-05-06T04:30:02.000Z,72
2023-05-06T04:31:18.000Z,60
2023-05-06T04:32:34.000Z,64
2023-05-06T04:33:50.000Z,92
2023-05-06T04:35:06.000Z,88
2023-05-06T04:36:21.000Z,100
2023-05-06T04:37:37.000Z,92
2023-05-06T04:38:54.000Z,84
2023-05-06T04:40:10.000Z,76
2023-05-06T04:41:26.000Z,76
2023-05-06T04:42:42.000Z,60
2023-05-06T04:43:58.000Z,56
2023-05-06T04:45:14.000Z,60
2023-05-06T04:46:30.000Z,56
2023-05-06T04:47:47.000Z,60
2023-05-06T04:49:03.000Z,56
2023-05-06T04:50:19.000Z,52
2023-05-06T04:51:35.000Z,56
2023-05-06T04:52:50.000Z,64
2023-05-06T04:54:06.000Z,60
2023-05-06T04:55:23.000Z,60
2023-05-06T04:56:39.000Z,56
2023-05-06T04:59:11.000Z,60
2023-05-06T05:00:27.000Z,80
2023-05-06T05:01:43.000Z,76
2023-05-06T05:02:59.000Z,92
2023-05-06T05:04:16.000Z,100
2023-05-06T05:05:32.000Z,116
2023-05-06T05:06:48.000Z,132
2023-05-06T05:08:04.000Z,96
2023-05-06T05:09:19.000Z,120
2023-05-06T05:10:35.000Z,132
2023-05-06T05:11:51.000Z,168
2023-05-06T05:13:08.000Z,164
2023-05-06T05:14:24.000Z,192
2023-05-06T05:15:40.000Z,204
2023-05-06T05:16:56.000Z,184
2023-05-06T05:18:12.000Z,188
2023-05-06T05:19:28.000Z,168
2023-05-06T05:20:44.000Z,180
2023-05-06T05:22:01.000Z,168
2023-05-06T05:23:17.000Z,180
2023-05-06T05:24:33.000Z,200
2023-05-06T05:25:48.000Z,188
2023-05-06T05:27:04.000Z,184
2023-05-06T05:28:20.000Z,192
2023-05-06T05:29:36.000Z,216
2023-05-06T05:30:53.000Z,228
2023-05-06T05:32:09.000Z,208
2023-05-06T05:33:25.000Z,208
2023-05-06T05:34:41.000Z,176
2023-05-06T05:35:57.000Z,184
2023-05-06T05:37:13.000Z,196
2023-05-06T05:38:29.000Z,240
2023-05-06T05:39:46.000Z,252
2023-05-06T05:41:02.000Z,252
2023-05-06T05:42:17.000Z,252
2023-05-06T05:44:49.000Z,272
2023-05-06T05:46:05.000Z,272
2023-05-06T05:47:21.000Z,312
2023-05-06T05:48:38.000Z,292
2023-05-06T05:49:54.000Z,332
2023-05-06T05:51:10.000Z,340
2023-05-06T05:52:26.000Z,388
2023-05-06T05:53:42.000Z,388
2023-05-06T05:54:58.000Z,372
2023-05-06T05:56:14.000Z,304
2023-05-06T05:57:31.000Z,364
2023-05-06T05:58:46.000Z,308
2023-05-06T06:00:02.000Z,332
2023-05-06T06:01:18.000Z,308
2023-05-06T06:02:34.000Z,320
2023-05-06T06:03:50.000Z,316
2023-05-06T06:05:06.000Z,340
2023-05-06T06:06:23.000Z,400
2023-05-06T06:07:39.000Z,360
2023-05-06T06:08:55.000Z,380
2023-05-06T06:10:11.000Z,404
2023-05-06T06:11:27.000Z,444
2023-05-06T06:12:43.000Z,368
2023-05-06T06:13:59.000Z,456
2023-05-06T06:15:15.000Z,400
2023-05-06T06:16:31.000Z,380
2023-05-06T06:17:47.000Z,484
2023-05-06T06:19:03.000Z,388
2023-05-06T06:20:19.000Z,432
2023-05-06T06:21:35.000Z,384
2023-05-06T06:22:51.000Z,540
2023-05-06T06:24:08.000Z,444
2023-05-06T06:25:24.000Z,496
2023-05-06T06:26:40.000Z,572
2023-05-06T06:27:56.000Z,576
2023-05-06T06:29:12.000Z,604
2023-05-06T06:30:28.000Z,600
2023-05-06T06:31:44.000Z,752
2023-05-06T06:33:00.000Z,736
2023-05-06T06:34:16.000Z,740
2023-05-06T06:35:32.000Z,768
2023-05-06T06:36:48.000Z,704
2023-05-06T06:38:04.000Z,788
2023-05-06T06:39:20.000Z,712
2023-05-06T06:40:37.000Z,740
2023-05-06T06:41:53.000Z,764
2023-05-06T06:43:09.000Z,904
2023-05-06T06:44:25.000Z,1012
2023-05-06T06:45:41.000Z,1088
2023-05-06T06:46:57.000Z,984
2023-05-06T06:48:12.000Z,1096
2023-05-06T06:49:29.000Z,1032
2023-05-06T06:50:45.000Z,900
2023-05-06T06:52:01.000Z,1052
2023-05-06T06:53:17.000Z,1056
2023-05-06T06:54:33.000Z,1084
2023-05-06T06:55:49.000Z,1260
2023-05-06T06:57:05.000Z,1068
2023-05-06T06:58:22.000Z,1212
2023-05-06T06:59:38.000Z,928
2023-05-06T07:00:54.000Z,1276
2023-05-06T07:02:10.000Z,956
2023-05-06T07:03:26.000Z,972
2023-05-06T07:04:41.000Z,956
2023-05-06T07:05:57.000Z,840
2023-05-06T07:07:14.000Z,888
2023-05-06T07:08:30.000Z,984
2023-05-06T07:09:46.000Z,988
2023-05-06T07:11:02.000Z,972
2023-05-06T07:12:18.000Z,808
2023-05-06T07:13:34.000Z,908
2023-05-06T07:14:50.000Z,916
2023-05-06T07:16:07.000Z,972
2023-05-06T07:17:23.000Z,968
2023-05-06T07:18:39.000Z,944
2023-05-06T07:19:55.000Z,1144
2023-05-06T07:21:10.000Z,1128
2023-05-06T07:22:26.000Z,1200
2023-05-06T07:23:42.000Z,1200
2023-05-06T07:24:59.000Z,1292
2023-05-06T07:26:15.000Z,1120
2023-05-06T07:27:31.000Z,1060
2023-05-06T07:28:46.000Z,904
2023-05-06T07:30:02.000Z,916
2023-05-06T07:31:18.000Z,1004
2023-05-06T07:32:34.000Z,988
2023-05-06T07:33:51.000Z,1068
2023-05-06T07:35:07.000Z,984
2023-05-06T07:36:23.000Z,892
2023-05-06T07:37:39.000Z,876
2023-05-06T07:38:55.000Z,820
2023-05-06T07:40:11.000Z,816
2023-05-06T07:41:27.000Z,792
2023-05-06T07:42:44.000Z,804
2023-05-06T07:44:00.000Z,796
2023-05-06T07:45:15.000Z,904
2023-05-06T07:46:31.000Z,836
2023-05-06T07:47:47.000Z,852
2023-05-06T07:49:03.000Z,924
2023-05-06T07:50:19.000Z,1128
2023-05-06T07:51:36.000Z,1200
2023-05-06T07:52:52.000Z,1036
2023-05-06T07:54:08.000Z,1320
2023-05-06T07:55:24.000Z,1316
2023-05-06T07:56:40.000Z,1264
2023-05-06T07:57:56.000Z,1032
2023-05-06T07:59:13.000Z,1204
2023-05-06T08:00:29.000Z,1004
2023-05-06T08:01:44.000Z,1188
2023-05-06T08:03:00.000Z,1424
2023-05-06T08:05:32.000Z,1012
2023-05-06T08:06:48.000Z,1280
2023-05-06T08:08:05.000Z,1200
2023-05-06T08:09:21.000Z,892
2023-05-06T08:10:37.000Z,1008
2023-05-06T08:11:53.000Z,1012
2023-05-06T08:13:09.000Z,1112
2023-05-06T08:14:25.000Z,1060
2023-05-06T08:15:41.000Z,1016
2023-05-06T08:16:58.000Z,1056
2023-05-06T08:18:13.000Z,1032
2023-05-06T08:19:29.000Z,1048
2023-05-06T08:20:45.000Z,996
2023-05-06T08:22:01.000Z,1052
2023-05-06T08:23:17.000Z,1108
2023-05-06T08:24:33.000Z,1120
2023-05-06T08:25:50.000Z,1132
2023-05-06T08:27:06.000Z,1064
2023-05-06T08:28:22.000Z,1088
2023-05-06T08:29:38.000Z,1136
2023-05-06T08:30:54.000Z,1048
2023-05-06T08:32:10.000Z,1096
2023-05-06T08:33:26.000Z,1392
2023-05-06T08:34:42.000Z,1496
2023-05-06T08:35:58.000Z,1464
2023-05-06T08:37:14.000Z,1368
2023-05-06T08:38:30.000Z,1572
2023-05-06T08:39:46.000Z,1368
2023-05-06T08:41:02.000Z,1484
2023-05-06T08:42:18.000Z,1420
2023-05-06T08:43:35.000Z,1784
2023-05-06T08:44:51.000Z,1332
2023-05-06T08:46:07.000Z,1080
2023-05-06T08:47:23.000Z,1356
2023-05-06T08:48:39.000Z,1132
2023-05-06T08:49:55.000Z,1104
2023-05-06T08:51:10.000Z,1432
2023-05-06T08:52:27.000Z,1580
2023-05-06T08:53:43.000Z,1468
2023-05-06T08:54:59.000Z,1880
2023-05-06T08:56:15.000Z,1772
2023-05-06T08:57:31.000Z,1760
2023-05-06T08:58:47.000Z,1548
2023-05-06T09:00:03.000Z,1376
2023-05-06T09:01:20.000Z,1500
2023-05-06T09:02:36.000Z,1412
2023-05-06T09:03:52.000Z,1468
2023-05-06T09:05:08.000Z,1600
2023-05-06T09:06:24.000Z,1596
2023-05-06T09:07:39.000Z,1748
2023-05-06T09:08:55.000Z,1992
2023-05-06T09:10:12.000Z,1588
2023-05-06T09:11:28.000Z,1800
2023-05-06T09:12:44.000Z,1396
2023-05-06T09:14:00.000Z,1168
2023-05-06T09:15:16.000Z,1148
2023-05-06T09:16:32.000Z,1104
2023-05-06T09:17:49.000Z,1204
2023-05-06T09:19:05.000Z,1364
2023-05-06T09:20:21.000Z,1228
2023-05-06T09:21:37.000Z,1128
2023-05-06T09:22:53.000Z,1324
2023-05-06T09:24:08.000Z,1128
2023-05-06T09:25:24.000Z,1020
2023-05-06T09:26:41.000Z,1104
2023-05-06T09:27:57.000Z,1072
2023-05-06T09:29:13.000Z,956
2023-05-06T09:30:29.000Z,824
2023-05-06T09:31:45.000Z,824
2023-05-06T09:33:01.000Z,844
2023-05-06T09:34:17.000Z,860
2023-05-06T09:35:34.000Z,888
2023-05-06T09:36:50.000Z,1024
2023-05-06T09:38:06.000Z,1064
2023-05-06T09:39:22.000Z,1176
2023-05-06T09:40:37.000Z,1072
2023-05-06T09:41:53.000Z,1256
2023-05-06T09:43:09.000Z,1356
2023-05-06T09:44:26.000Z,1728
2023-05-06T09:45:42.000Z,1700
2023-05-06T09:46:58.000Z,2064
2023-05-06T09:48:14.000Z,2020
2023-05-06T09:49:30.000Z,2024
2023-05-06T09:50:46.000Z,2640
2023-05-06T09:52:02.000Z,1612
2023-05-06T09:53:19.000Z,1384
2023-05-06T09:54:35.000Z,1348
2023-05-06T09:55:51.000Z,1416
2023-05-06T09:57:06.000Z,1428
2023-05-06T09:58:22.000Z,1572
2023-05-06T09:59:38.000Z,1672
2023-05-06T10:00:54.000Z,1804
2023-05-06T10:02:11.000Z,1792
2023-05-06T10:03:27.000Z,2108
2023-05-06T10:04:43.000Z,1752
2023-05-06T10:05:59.000Z,1952
2023-05-06T10:07:15.000Z,2008
2023-05-06T10:08:31.000Z,1968
2023-05-06T10:09:47.000Z,1988
2023-05-06T10:11:04.000Z,2124
2023-05-06T10:12:20.000Z,2052
2023-05-06T10:13:35.000Z,1892
2023-05-06T10:14:51.000Z,2196
2023-05-06T10:16:07.000Z,1800
2023-05-06T10:17:23.000Z,2144
2023-05-06T10:18:39.000Z,2384
2023-05-06T10:19:56.000Z,2340
2023-05-06T10:21:12.000Z,2576
2023-05-06T10:22:28.000Z,2280
2023-05-06T10:23:44.000Z,2400
2023-05-06T10:25:00.000Z,2748
2023-05-06T10:26:16.000Z,2432
2023-05-06T10:27:32.000Z,2312
2023-05-06T10:28:49.000Z,2632
2023-05-06T10:30:04.000Z,2744
2023-05-06T10:31:20.000Z,2668
2023-05-06T10:32:36.000Z,2036
2023-05-06T10:33:52.000Z,2320
2023-05-06T10:35:08.000Z,2144
2023-05-06T10:36:24.000Z,2040
2023-05-06T10:37:41.000Z,2280
2023-05-06T10:38:57.000Z,2340
2023-05-06T10:40:13.000Z,2316
2023-05-06T10:41:29.000Z,2416
2023-05-06T10:42:45.000Z,2296
2023-05-06T10:44:01.000Z,1864
2023-05-06T10:45:18.000Z,1816
2023-05-06T10:46:33.000Z,2532
2023-05-06T10:47:49.000Z,2064
2023-05-06T10:49:05.000Z,2336
2023-05-06T10:50:21.000Z,2160
2023-05-06T10:51:37.000Z,2032
2023-05-06T10:52:53.000Z,2016
2023-05-06T10:54:10.000Z,2348
2023-05-06T10:55:26.000Z,2204
2023-05-06T10:56:42.000Z,2204
2023-05-06T10:57:58.000Z,2180
2023-05-06T10:59:14.000Z,1840
2023-05-06T11:00:30.000Z,1792
2023-05-06T11:01:46.000Z,1788
2023-05-06T11:03:02.000Z,2072
2023-05-06T11:04:18.000Z,1732
2023-05-06T11:05:34.000Z,1832
2023-05-06T11:06:50.000Z,1836
2023-05-06T11:08:06.000Z,1812
2023-05-06T11:09:22.000Z,1676
2023-05-06T11:10:38.000Z,1936
2023-05-06T11:11:55.000Z,1968
2023-05-06T11:13:11.000Z,2632
2023-05-06T11:14:27.000Z,1980
2023-05-06T11:15:43.000Z,2316
2023-05-06T11:16:59.000Z,2388
2023-05-06T11:18:15.000Z,2328
2023-05-06T11:19:30.000Z,2404
2023-05-06T11:20:47.000Z,2400
2023-05-06T11:22:03.000Z,2632
2023-05-06T11:23:19.000Z,3016
2023-05-06T11:24:35.000Z,2476
2023-05-06T11:25:51.000Z,2552
2023-05-06T11:27:07.000Z,2356
2023-05-06T11:28:23.000Z,2088
2023-05-06T11:29:40.000Z,2760
2023-05-06T11:30:56.000Z,2880
2023-05-06T11:32:12.000Z,2904
2023-05-06T11:33:28.000Z,2724
2023-05-06T11:34:44.000Z,2472
2023-05-06T11:35:59.000Z,2792
2023-05-06T11:37:15.000Z,2356
2023-05-06T11:38:32.000Z,2564
2023-05-06T11:39:48.000Z,2560
2023-05-06T11:41:04.000Z,2436
2023-05-06T11:42:20.000Z,2044
2023-05-06T11:43:35.000Z,2012
2023-05-06T11:44:51.000Z,2280
2023-05-06T11:46:07.000Z,3360
2023-05-06T11:47:24.000Z,3180
2023-05-06T11:48:40.000Z,2920
2023-05-06T11:49:56.000Z,2760
2023-05-06T11:51:12.000Z,3272
2023-05-06T11:52:28.000Z,2512
2023-05-06T11:53:44.000Z,2548
2023-05-06T11:55:00.000Z,1504
2023-05-06T11:56:17.000Z,1740
2023-05-06T11:57:33.000Z,1384
2023-05-06T11:58:49.000Z,1824
2023-05-06T12:00:04.000Z,1940
2023-05-06T12:01:20.000Z,2660
2023-05-06T12:02:36.000Z,1868
2023-05-06T12:03:53.000Z,1668
2023-05-06T12:05:09.000Z,1452
2023-05-06T12:07:41.000Z,1492
2023-05-06T12:08:57.000Z,1492
2023-05-06T12:10:13.000Z,1352
2023-05-06T12:11:29.000Z,1552
2023-05-06T12:12:46.000Z,2040
2023-05-06T12:14:02.000Z,1780
2023-05-06T12:15:18.000Z,1824
2023-05-06T12:16:33.000Z,2600
2023-05-06T12:17:49.000Z,2452
2023-05-06T12:19:05.000Z,2532
2023-05-06T12:20:21.000Z,2708
2023-05-06T12:21:38.000Z,2172
2023-05-06T12:22:54.000Z,1848
2023-05-06T12:24:10.000Z,1568
2023-05-06T12:25:26.000Z,1560
2023-05-06T12:26:42.000Z,1628
2023-05-06T12:27:58.000Z,1268
2023-05-06T12:29:14.000Z,1776
2023-05-06T12:30:31.000Z,1720
2023-05-06T12:31:47.000Z,2060
2023-05-06T12:33:02.000Z,1880
2023-05-06T12:34:18.000Z,1888
2023-05-06T12:35:34.000Z,2112
2023-05-06T12:36:50.000Z,2332
2023-05-06T12:39:23.000Z,2244
2023-05-06T12:40:39.000Z,2176
2023-05-06T12:41:55.000Z,2120
2023-05-06T12:43:11.000Z,1700
2023-05-06T12:44:27.000Z,1868
2023-05-06T12:45:43.000Z,1700
2023-05-06T12:46:59.000Z,1996
2023-05-06T12:48:16.000Z,3004
2023-05-06T12:49:31.000Z,3316
2023-05-06T12:50:47.000Z,3576
2023-05-06T12:52:03.000Z,3156
2023-05-06T12:53:19.000Z,1896
2023-05-06T12:54:35.000Z,2912
2023-05-06T12:55:51.000Z,3164
2023-05-06T12:57:08.000Z,2680
2023-05-06T12:58:24.000Z,2248
2023-05-06T12:59:40.000Z,2556
2023-05-06T13:00:56.000Z,2516
2023-05-06T13:02:12.000Z,1672
2023-05-06T13:03:28.000Z,2296
2023-05-06T13:04:44.000Z,2528
2023-05-06T13:06:00.000Z,2128
2023-05-06T13:07:16.000Z,1924
2023-05-06T13:08:32.000Z,2188
2023-05-06T13:09:48.000Z,1944
2023-05-06T13:11:04.000Z,1512
2023-05-06T13:12:20.000Z,1284
2023-05-06T13:13:36.000Z,1124
2023-05-06T13:14:53.000Z,1104
2023-05-06T13:16:09.000Z,1244
2023-05-06T13:17:25.382Z,1080
2023-05-06T13:18:41.000Z,1108
2023-05-06T13:19:57.000Z,1508
2023-05-06T13:21:13.000Z,1432
2023-05-06T13:22:28.000Z,1100
2023-05-06T13:23:45.000Z,1156
2023-05-06T13:25:01.000Z,1484
2023-05-06T13:26:17.000Z,1456
2023-05-06T13:27:33.000Z,1268
2023-05-06T13:28:49.000Z,984
2023-05-06T13:30:05.000Z,952
2023-05-06T13:31:21.000Z,1008
2023-05-06T13:32:38.000Z,1144
2023-05-06T13:35:10.000Z,936
2023-05-06T13:36:26.000Z,868
2023-05-06T13:37:42.000Z,904
2023-05-06T13:38:57.000Z,968
2023-05-06T13:40:14.000Z,980
2023-05-06T13:41:30.000Z,948
2023-05-06T13:42:46.000Z,872
2023-05-06T13:44:02.000Z,784
2023-05-06T13:45:18.000Z,820
2023-05-06T13:46:34.000Z,1060
2023-05-06T13:47:50.000Z,952
2023-05-06T13:49:07.000Z,828
2023-05-06T13:50:23.000Z,796
2023-05-06T13:51:39.000Z,804
2023-05-06T13:52:55.000Z,888
2023-05-06T13:54:11.000Z,924
2023-05-06T13:55:26.000Z,884
2023-05-06T13:56:42.000Z,800
2023-05-06T13:57:59.000Z,808
2023-05-06T13:59:15.000Z,800
2023-05-06T14:00:31.000Z,936
2023-05-06T14:01:47.000Z,756
2023-05-06T14:03:03.000Z,772
2023-05-06T14:04:19.000Z,856
2023-05-06T14:05:35.000Z,704
2023-05-06T14:06:52.000Z,732
2023-05-06T14:08:08.000Z,804
2023-05-06T14:09:24.000Z,764
2023-05-06T14:10:40.000Z,668
2023-05-06T14:11:55.000Z,728
2023-05-06T14:13:11.000Z,748
2023-05-06T14:14:27.000Z,820
2023-05-06T14:15:44.000Z,752
2023-05-06T14:17:00.000Z,744
2023-05-06T14:18:16.000Z,740
2023-05-06T14:19:32.000Z,684
2023-05-06T14:20:48.000Z,624
2023-05-06T14:22:04.000Z,644
2023-05-06T14:23:20.000Z,704
2023-05-06T14:24:37.000Z,672
2023-05-06T14:25:53.000Z,692
2023-05-06T14:27:09.000Z,712
2023-05-06T14:28:24.000Z,768
2023-05-06T14:29:40.000Z,820
2023-05-06T14:30:56.000Z,884
2023-05-06T14:32:12.000Z,812
2023-05-06T14:33:29.000Z,796
2023-05-06T14:34:45.000Z,944
2023-05-06T14:36:01.000Z,864
2023-05-06T14:37:17.000Z,888
2023-05-06T14:38:33.000Z,852
2023-05-06T14:39:49.000Z,864
2023-05-06T14:41:05.000Z,848
2023-05-06T14:42:22.000Z,868
2023-05-06T14:43:38.000Z,668
2023-05-06T14:44:54.000Z,660
2023-05-06T14:46:09.000Z,860
2023-05-06T14:47:25.000Z,644
2023-05-06T14:48:41.000Z,600
2023-05-06T14:49:57.000Z,620
2023-05-06T14:51:14.000Z,732
2023-05-06T14:52:30.000Z,724
2023-05-06T14:53:46.000Z,764
2023-05-06T14:55:02.000Z,788
2023-05-06T14:56:18.000Z,736
2023-05-06T14:57:34.000Z,920
2023-05-06T14:58:51.000Z,784
2023-05-06T15:00:07.000Z,984
2023-05-06T15:01:23.000Z,908
2023-05-06T15:02:38.000Z,944
2023-05-06T15:03:54.000Z,1080
2023-05-06T15:05:10.000Z,1004
2023-05-06T15:06:26.000Z,944
2023-05-06T15:07:43.000Z,1052
2023-05-06T15:08:59.000Z,900
2023-05-06T15:10:15.000Z,884
2023-05-06T15:11:31.000Z,904
2023-05-06T15:12:47.000Z,1076
2023-05-06T15:14:03.000Z,984
2023-05-06T15:15:19.000Z,892
2023-05-06T15:16:36.000Z,888
2023-05-06T15:17:52.000Z,844
2023-05-06T15:19:07.000Z,804
2023-05-06T15:20:23.000Z,864
2023-05-06T15:21:39.000Z,776
2023-05-06T15:22:55.000Z,900
2023-05-06T15:24:11.000Z,856
2023-05-06T15:25:28.000Z,932
2023-05-06T15:26:44.000Z,920
2023-05-06T15:28:00.000Z,860
2023-05-06T15:29:16.000Z,896
2023-05-06T15:30:32.000Z,852
2023-05-06T15:31:48.000Z,820
2023-05-06T15:33:04.000Z,736
2023-05-06T15:34:21.000Z,652
2023-05-06T15:35:36.000Z,788
2023-05-06T15:36:52.000Z,700
2023-05-06T15:38:08.000Z,704
2023-05-06T15:39:24.000Z,692
2023-05-06T15:40:40.000Z,620
2023-05-06T15:41:56.000Z,612
2023-05-06T15:43:13.000Z,616
2023-05-06T15:44:29.000Z,608
2023-05-06T15:45:45.000Z,656
2023-05-06T15:47:01.000Z,656
2023-05-06T15:48:17.000Z,612
2023-05-06T15:49:33.000Z,648
2023-05-06T15:50:49.000Z,616
2023-05-06T15:52:05.000Z,608
2023-05-06T15:53:21.000Z,652
2023-05-06T15:54:37.000Z,564
2023-05-06T15:55:53.000Z,576
2023-05-06T15:57:09.000Z,576
2023-05-06T15:58:24.000Z,556
2023-05-06T15:59:41.000Z,484
2023-05-06T16:00:57.000Z,448
2023-05-06T16:02:13.000Z,456
2023-05-06T16:03:29.000Z,468
2023-05-06T16:04:45.000Z,436
2023-05-06T16:06:01.000Z,512
2023-05-06T16:07:17.000Z,496
2023-05-06T16:08:34.000Z,468
2023-05-06T16:09:50.000Z,440
2023-05-06T16:11:06.000Z,436
2023-05-06T16:12:22.000Z,440
2023-05-06T16:13:38.000Z,452
2023-05-06T16:14:53.000Z,508
2023-05-06T16:16:09.000Z,648
2023-05-06T16:17:26.000Z,452
2023-05-06T16:18:42.000Z,408
2023-05-06T16:19:58.000Z,428
2023-05-06T16:21:14.000Z,568
2023-05-06T16:22:30.000Z,572
2023-05-06T16:23:46.000Z,544
2023-05-06T16:25:02.000Z,464
2023-05-06T16:26:19.000Z,532
2023-05-06T16:27:35.000Z,604
2023-05-06T16:28:51.000Z,508
2023-05-06T16:30:07.000Z,532
2023-05-06T16:31:22.000Z,456
2023-05-06T16:32:38.000Z,436
2023-05-06T16:33:54.000Z,460
2023-05-06T16:35:11.000Z,448
2023-05-06T16:36:27.000Z,440
2023-05-06T16:37:43.000Z,508
2023-05-06T16:38:59.000Z,524
2023-05-06T16:40:15.000Z,508
2023-05-06T16:41:31.000Z,412
2023-05-06T16:42:47.000Z,412
2023-05-06T16:44:04.000Z,492
2023-05-06T16:45:20.000Z,456
2023-05-06T16:46:36.000Z,472
2023-05-06T16:47:51.000Z,432
2023-05-06T16:49:07.000Z,448
2023-05-06T16:50:23.000Z,432
2023-05-06T16:51:40.000Z,396
2023-05-06T16:52:56.000Z,416
2023-05-06T16:54:12.000Z,424
2023-05-06T16:55:28.000Z,436
2023-05-06T16:56:44.000Z,412
2023-05-06T16:58:00.000Z,424
2023-05-06T16:59:16.000Z,384
2023-05-06T17:00:33.000Z,420
2023-05-06T17:01:49.000Z,404
2023-05-06T17:03:05.000Z,420
2023-05-06T17:04:20.000Z,448
2023-05-06T17:05:36.000Z,488
2023-05-06T17:06:52.000Z,488
2023-05-06T17:08:08.000Z,492
2023-05-06T17:09:25.000Z,508
2023-05-06T17:10:41.000Z,476
2023-05-06T17:11:57.000Z,488
2023-05-06T17:13:13.000Z,448
2023-05-06T17:14:29.000Z,360
2023-05-06T17:15:45.000Z,376
2023-05-06T17:17:01.000Z,388
2023-05-06T17:18:18.000Z,424
2023-05-06T17:19:34.000Z,344
2023-05-06T17:20:49.000Z,320
2023-05-06T17:22:05.000Z,304
2023-05-06T17:23:21.000Z,288
2023-05-06T17:24:37.000Z,264
2023-05-06T17:25:53.000Z,296
2023-05-06T17:27:10.000Z,292
2023-05-06T17:28:26.000Z,264
2023-05-06T17:29:42.000Z,264
2023-05-06T17:30:58.000Z,280
2023-05-06T17:32:14.000Z,268
2023-05-06T17:33:30.000Z,284
2023-05-06T17:34:46.000Z,212
2023-05-06T17:37:19.000Z,228
2023-05-06T17:38:34.000Z,188
2023-05-06T17:39:50.000Z,204
2023-05-06T17:41:06.000Z,224
2023-05-06T17:42:22.000Z,184
2023-05-06T17:43:39.000Z,192